Terminal Aerodrome Forecast
Issued by NWS St Louis, MO

Home | Current Version | Previous Version | Graphics & Text | Print | Product List | Glossary On
Versions: 1 2 3 4 5 6 7 8 9 10 11 12 13 14 15 16 17 18
000
FTUS43 KLSX 131000 AAB
TAFCOU
TAF AMD
KCOU 131057Z 1311/1406 VRB04KT 3SM BR BKN003
     FM131400 06008KT P6SM SKC
     FM140000 11006KT P6SM SKC=

USA.gov is the U.S. government's official web portal to all federal, state and local government web resources and services.